Bremen, Minnesota
Current Conditions -  °F | °C
As of 2:13 AM on Monday 26 Jan 2015 (Local Time) from K04W Reporting Station
Light Snow Light Snow  
Wind Chill: 13°   Ceiling: 2000
Heat Index: 23°   Visibility: 7mi
Dew Point: 18°   Wind: 9mph
Humidity: 80%   Direction: 190°S
Pressure: 29.85"   Gusts: NA
Location:  46.2114°N, 92.9743°W
Report Text: K04W 260813Z AUTO 19008KT 7SM -SN OVC020 M05/M08 A2985 RMK AO2
Loading
Personal Weather Stations






























Interactive Weather Map New forecast layout! Learn more

10-Day Weather Forecast

Advertisements
Track Severe Weather on mobile